Rantowels, South Carolina
Current Conditions -  °F | °C
As of 3:15 AM on Monday 26 Jan 2015 (Local Time) from KJZI Reporting Station
Overcast Overcast  
Wind Chill: 54°   Ceiling: 5500
Heat Index: 54°   Visibility: 10mi
Dew Point: 48°   Wind: 10mph
Humidity: 82%   Direction: 230°SW
Pressure: 29.77"   Gusts: 17mph
Location:  32.7025°N, 80.284°W
Report Text: KJZI 260815Z AUTO 23009G15KT 10SM FEW031 FEW041 OVC055 12/09 A2977 RMK A02 P000
Loading
Personal Weather Stations






























Interactive Weather Map New forecast layout! Learn more

10-Day Weather Forecast

Advertisements
Track Severe Weather on mobile